Time;durP1;ratioP1;P1;durP2;ratioP2;P2;SDS_P1;SDS_P2;PMS_P1;PMS_P2;Temp;Humidity;BMP_temperature;BMP_pressure;BME280_temperature;BME280_humidity;BME280_pressure;Samples;Min_cycle;Max_cycle;Signal;HPM_P1;HPM_P2
2022/03/07 00:01:14;;;;;;;;;5.75;5.75;;;;;4.31;73.49;102751.97;5044502;28;11423;-70
2022/03/07 00:03:41;;;;;;;;;7.00;6.00;;;;;4.27;73.00;102743.25;5042259;28;11494;-70
2022/03/07 00:06:08;;;;;;;;;5.50;4.00;;;;;4.30;73.09;102742.19;5056561;28;11406;-71
2022/03/07 00:08:34;;;;;;;;;7.75;7.75;;;;;4.20;73.36;102746.44;5045954;28;11417;-67
2022/03/07 00:11:05;;;;;;;;;7.50;5.00;;;;;4.14;73.94;102739.66;5025712;28;11436;-71
2022/03/07 00:13:32;;;;;;;;;2.00;2.00;;;;;4.15;73.96;102746.72;5042118;28;11477;-71
2022/03/07 00:16:00;;;;;;;;;4.25;4.25;;;;;4.08;74.13;102749.94;5057917;28;11466;-71
2022/03/07 00:18:26;;;;;;;;;3.75;3.25;;;;;4.10;73.93;102750.69;5007825;28;11420;-69
2022/03/07 00:20:53;;;;;;;;;4.25;4.00;;;;;4.06;74.25;102743.81;5044794;28;11487;-68
2022/03/07 00:23:19;;;;;;;;;1.50;1.50;;;;;4.00;74.12;102750.44;5042673;28;11551;-70
2022/03/07 00:25:47;;;;;;;;;9.00;7.25;;;;;3.95;74.25;102749.84;5042722;28;11389;-71
2022/03/07 00:28:16;;;;;;;;;4.75;4.75;;;;;3.89;74.41;102747.56;5044318;28;11534;-69
2022/03/07 00:30:42;;;;;;;;;3.25;3.00;;;;;3.88;74.58;102749.38;5044257;28;11489;-71
2022/03/07 00:33:09;;;;;;;;;4.00;4.00;;;;;3.85;74.36;102752.25;5042209;28;11429;-69
2022/03/07 00:35:35;;;;;;;;;9.00;5.25;;;;;3.82;74.67;102751.59;5038732;28;11497;-71
2022/03/07 00:38:05;;;;;;;;;8.00;4.00;;;;;3.70;74.61;102751.41;5044150;28;11416;-71
2022/03/07 00:40:31;;;;;;;;;7.00;6.00;;;;;3.59;75.01;102753.94;5045414;28;11526;-70
2022/03/07 00:42:58;;;;;;;;;7.00;5.00;;;;;3.50;75.44;102757.19;5042792;28;11442;-71
2022/03/07 00:45:24;;;;;;;;;6.00;5.00;;;;;3.46;75.61;102758.31;5026729;28;11449;-69
2022/03/07 00:47:51;;;;;;;;;9.00;5.50;;;;;3.39;75.83;102765.88;5031952;28;13255;-72
2022/03/07 00:50:18;;;;;;;;;9.00;5.00;;;;;3.35;75.91;102767.03;5042317;28;11619;-70
2022/03/07 00:52:44;;;;;;;;;5.75;4.00;;;;;3.35;76.31;102766.16;5047060;28;11421;-72
2022/03/07 00:55:11;;;;;;;;;7.25;4.00;;;;;3.33;76.35;102766.25;5057118;28;13701;-71
2022/03/07 00:57:38;;;;;;;;;5.00;5.00;;;;;3.29;75.98;102771.91;5025689;28;12238;-70
2022/03/07 01:00:05;;;;;;;;;5.00;5.00;;;;;3.20;75.85;102775.13;5061690;28;11571;-71
2022/03/07 01:02:33;;;;;;;;;9.00;5.00;;;;;3.17;76.35;102767.28;5042376;28;11401;-68
2022/03/07 01:05:00;;;;;;;;;4.75;4.75;;;;;3.16;76.11;102777.13;5040622;28;11584;-72
2022/03/07 01:07:27;;;;;;;;;9.50;6.00;;;;;3.14;75.93;102775.50;5040775;28;11377;-70
2022/03/07 01:09:54;;;;;;;;;11.00;6.50;;;;;3.09;75.84;102776.66;5039542;28;11936;-72
2022/03/07 01:12:22;;;;;;;;;8.50;7.00;;;;;3.08;75.96;102774.94;5042069;28;11460;-72
2022/03/07 01:14:48;;;;;;;;;4.25;3.00;;;;;3.04;76.25;102778.75;5058225;28;11480;-70
2022/03/07 01:17:16;;;;;;;;;3.75;3.00;;;;;2.96;76.06;102772.97;5027994;28;11398;-70
2022/03/07 01:19:43;;;;;;;;;4.75;4.75;;;;;2.88;76.40;102769.06;5040557;28;11591;-68
2022/03/07 01:22:09;;;;;;;;;7.50;5.25;;;;;2.86;76.45;102777.16;5056962;28;13767;-70
2022/03/07 01:24:37;;;;;;;;;3.25;3.25;;;;;2.86;76.56;102773.63;5056369;28;11485;-72
2022/03/07 01:27:04;;;;;;;;;8.25;7.00;;;;;2.76;76.00;102781.34;5026220;28;11406;-70
2022/03/07 01:29:30;;;;;;;;;5.00;5.00;;;;;2.76;77.23;102776.88;5042546;28;11431;-72
2022/03/07 01:31:57;;;;;;;;;5.00;5.00;;;;;2.71;76.93;102781.59;5026727;28;11465;-69
2022/03/07 01:34:23;;;;;;;;;8.50;7.25;;;;;2.76;77.23;102786.72;5023597;28;11499;-70
2022/03/07 01:36:50;;;;;;;;;5.00;3.50;;;;;2.75;77.34;102777.81;5030952;28;12166;-71
2022/03/07 01:39:16;;;;;;;;;7.75;5.00;;;;;2.71;76.04;102778.94;5043468;28;11420;-70
2022/03/07 01:41:43;;;;;;;;;4.00;4.00;;;;;2.62;76.90;102779.47;5042595;28;11539;-70
2022/03/07 01:44:22;;;;;;;;;7.50;5.75;;;;;2.62;76.71;102784.81;5043551;28;11420;-70
2022/03/07 01:46:48;;;;;;;;;7.50;7.00;;;;;2.63;76.72;102783.00;5056649;28;11386;-68
2022/03/07 01:49:17;;;;;;;;;5.25;5.25;;;;;2.54;76.81;102779.06;5056936;28;11444;-72
2022/03/07 01:51:45;;;;;;;;;9.00;7.50;;;;;2.52;76.90;102778.31;5039605;28;11411;-70
2022/03/07 01:54:16;;;;;;;;;4.25;4.25;;;;;2.48;77.16;102774.09;5028668;28;11426;-70
2022/03/07 01:56:46;;;;;;;;;7.00;4.75;;;;;2.56;76.92;102771.81;5055148;28;11446;-72
2022/03/07 01:59:17;;;;;;;;;5.00;5.00;;;;;2.50;77.05;102777.53;5030972;28;11490;-70
2022/03/07 02:01:44;;;;;;;;;9.25;4.75;;;;;2.40;76.84;102768.31;5031272;28;11474;-71
2022/03/07 02:04:11;;;;;;;;;4.50;3.00;;;;;2.45;77.22;102769.75;5044389;28;11502;-71
2022/03/07 02:06:39;;;;;;;;;9.25;5.25;;;;;2.45;77.33;102769.75;5040938;28;11435;-71
2022/03/07 02:09:08;;;;;;;;;5.00;5.00;;;;;2.39;77.35;102770.13;5024683;28;11430;-70
2022/03/07 02:11:40;;;;;;;;;4.25;4.25;;;;;2.44;77.62;102764.50;5055110;28;11534;-72
2022/03/07 02:14:11;;;;;;;;;8.00;7.50;;;;;2.43;77.82;102765.44;5025544;28;11480;-70
2022/03/07 02:16:38;;;;;;;;;6.50;5.25;;;;;2.53;77.80;102766.66;5041460;28;11482;-71
2022/03/07 02:19:04;;;;;;;;;5.00;5.00;;;;;2.59;77.47;102768.97;5056114;28;11494;-72
2022/03/07 02:21:34;;;;;;;;;6.00;6.00;;;;;2.59;77.31;102760.94;5024997;28;11474;-70
2022/03/07 02:24:10;;;;;;;;;5.00;5.00;;;;;2.57;77.16;102768.19;5023942;28;11433;-70
2022/03/07 02:26:40;;;;;;;;;5.00;2.00;;;;;2.51;77.57;102762.34;5040891;28;12161;-71
2022/03/07 02:29:08;;;;;;;;;6.00;6.00;;;;;2.47;77.61;102765.19;5039227;28;11409;-70
2022/03/07 02:31:40;;;;;;;;;2.25;2.25;;;;;2.44;77.87;102769.84;5065181;28;11453;-70
2022/03/07 02:34:10;;;;;;;;;4.25;4.00;;;;;2.44;78.09;102773.38;5041631;28;11412;-71
2022/03/07 02:36:39;;;;;;;;;8.75;6.00;;;;;2.43;78.33;102771.66;5039359;28;11482;-70
2022/03/07 02:39:06;;;;;;;;;8.00;5.00;;;;;2.44;78.63;102762.69;5040581;28;11431;-71
2022/03/07 02:41:34;;;;;;;;;8.75;6.50;;;;;2.46;78.61;102762.59;5023961;28;11427;-71
2022/03/07 02:44:00;;;;;;;;;6.25;6.00;;;;;2.49;78.99;102759.78;5043251;28;11467;-71
2022/03/07 02:46:27;;;;;;;;;5.00;5.00;;;;;2.53;79.23;102755.97;5055830;28;11430;-70
2022/03/07 02:48:54;;;;;;;;;6.50;6.50;;;;;2.58;79.29;102751.22;5043931;28;11450;-71
2022/03/07 02:51:20;;;;;;;;;8.75;5.00;;;;;2.60;79.11;102745.75;5059024;28;11457;-70
2022/03/07 02:53:47;;;;;;;;;6.00;6.00;;;;;2.54;79.00;102748.81;5029833;28;11539;-71
2022/03/07 02:56:13;;;;;;;;;4.00;4.00;;;;;2.57;79.44;102748.63;5047287;28;11617;-68
2022/03/07 02:58:40;;;;;;;;;3.00;3.00;;;;;2.56;79.65;102752.25;5044873;28;12368;-71
2022/03/07 03:01:06;;;;;;;;;4.00;4.00;;;;;2.56;79.46;102750.44;5062014;28;11404;-71
2022/03/07 03:03:33;;;;;;;;;7.50;7.00;;;;;2.57;79.38;102745.94;5043901;28;11446;-68
2022/03/07 03:06:00;;;;;;;;;11.00;9.00;;;;;2.48;79.42;102736.66;5068520;28;11570;-69
2022/03/07 03:08:27;;;;;;;;;6.00;6.00;;;;;2.40;79.52;102742.44;5029958;28;11420;-70
2022/03/07 03:10:55;;;;;;;;;6.25;6.25;;;;;2.39;79.90;102745.19;5059381;28;11392;-68
2022/03/07 03:13:22;;;;;;;;;5.00;4.75;;;;;2.42;79.92;102739.69;5059714;28;11455;-68
2022/03/07 03:15:51;;;;;;;;;4.75;4.25;;;;;2.42;79.32;102739.69;5042973;28;11548;-70
2022/03/07 03:18:19;;;;;;;;;10.50;7.75;;;;;2.37;79.25;102739.09;5024427;28;11405;-70
2022/03/07 03:20:47;;;;;;;;;6.00;5.00;;;;;2.31;79.62;102742.97;5053347;28;11678;-71
2022/03/07 03:23:14;;;;;;;;;5.25;3.50;;;;;2.30;79.89;102740.41;5038951;28;11515;-71
2022/03/07 03:25:40;;;;;;;;;10.00;8.00;;;;;2.26;79.52;102745.06;5045350;28;11430;-70
2022/03/07 03:28:07;;;;;;;;;6.00;6.00;;;;;2.22;79.71;102730.13;5042082;28;11474;-69
2022/03/07 03:30:33;;;;;;;;;7.00;4.00;;;;;2.27;80.09;102735.25;5027992;28;11512;-71
2022/03/07 03:33:00;;;;;;;;;9.00;6.25;;;;;2.24;79.68;102735.41;5044583;28;11416;-70
2022/03/07 03:35:27;;;;;;;;;10.25;6.00;;;;;2.25;79.62;102732.66;5043342;28;11418;-70
2022/03/07 03:37:57;;;;;;;;;9.00;6.75;;;;;2.20;79.76;102737.38;5046973;28;11569;-70
2022/03/07 03:40:24;;;;;;;;;5.00;5.00;;;;;2.25;79.88;102748.69;5044902;28;11484;-71
2022/03/07 03:42:50;;;;;;;;;8.50;7.50;;;;;2.16;79.68;102736.69;5046168;28;11557;-71
2022/03/07 03:45:16;;;;;;;;;7.00;5.00;;;;;2.15;79.61;102739.47;5043594;28;11552;-69
2022/03/07 03:47:43;;;;;;;;;6.50;5.75;;;;;2.17;80.21;102732.22;5045501;28;11468;-68
2022/03/07 03:50:12;;;;;;;;;7.00;7.00;;;;;2.20;80.47;102729.38;5042110;28;11466;-69
2022/03/07 03:52:39;;;;;;;;;8.50;7.25;;;;;2.22;80.31;102737.28;5045093;28;11451;-71
2022/03/07 03:55:09;;;;;;;;;4.75;4.75;;;;;2.14;80.29;102719.91;5044656;28;11421;-70
2022/03/07 03:57:36;;;;;;;;;8.75;6.00;;;;;2.10;80.53;102728.19;5043801;28;11404;-72
2022/03/07 04:00:08;;;;;;;;;6.50;6.50;;;;;2.12;80.70;102726.28;5032865;28;11486;-71
2022/03/07 04:02:39;;;;;;;;;7.00;7.00;;;;;2.10;80.64;102718.34;5058383;28;11460;-69
2022/03/07 04:05:06;;;;;;;;;7.75;7.75;;;;;2.07;79.96;102723.88;5042069;28;11498;-70
2022/03/07 04:07:32;;;;;;;;;8.25;7.25;;;;;2.02;80.24;102722.44;5041079;28;11672;-72
2022/03/07 04:09:59;;;;;;;;;6.00;5.25;;;;;2.06;80.39;102722.16;5043750;28;11618;-69
2022/03/07 04:12:25;;;;;;;;;6.25;4.75;;;;;1.99;79.71;102726.13;5042875;28;11484;-70
2022/03/07 04:14:52;;;;;;;;;7.25;6.75;;;;;1.96;80.06;102722.75;5028352;28;11476;-70
2022/03/07 04:17:18;;;;;;;;;8.75;7.75;;;;;1.97;80.90;102725.34;5042151;28;12242;-69
2022/03/07 04:19:45;;;;;;;;;5.00;5.00;;;;;1.87;80.24;102729.47;5045067;28;11604;-71
2022/03/07 04:22:11;;;;;;;;;9.50;6.50;;;;;1.81;80.13;102733.38;5043019;28;11460;-71
2022/03/07 04:24:39;;;;;;;;;7.00;7.00;;;;;1.83;80.55;102727.94;5031862;28;11664;-70
2022/03/07 04:27:05;;;;;;;;;5.00;5.00;;;;;1.88;80.45;102723.19;5043597;28;11582;-70
2022/03/07 04:29:32;;;;;;;;;7.00;7.00;;;;;1.90;80.35;102736.47;5046914;28;11467;-71
2022/03/07 04:31:59;;;;;;;;;8.25;7.75;;;;;1.82;80.09;102732.41;5057061;28;11550;-71
2022/03/07 04:34:26;;;;;;;;;11.75;9.25;;;;;1.80;80.26;102736.13;5049388;28;11595;-71
2022/03/07 04:36:53;;;;;;;;;15.75;8.25;;;;;1.78;80.53;102733.53;5026716;28;11600;-71
2022/03/07 04:39:19;;;;;;;;;10.00;9.50;;;;;1.85;80.99;102726.91;5059364;28;11598;-71
2022/03/07 04:41:46;;;;;;;;;10.00;9.00;;;;;1.96;80.83;102728.09;5042255;28;11463;-70
2022/03/07 04:44:12;;;;;;;;;9.50;8.50;;;;;2.09;80.71;102739.81;5031824;28;11602;-70
2022/03/07 04:46:39;;;;;;;;;9.50;7.75;;;;;2.11;81.12;102729.91;5041578;28;11464;-66
2022/03/07 04:49:09;;;;;;;;;9.00;9.00;;;;;2.09;81.10;102739.81;5046128;28;11606;-70
2022/03/07 04:51:37;;;;;;;;;7.50;7.50;;;;;2.07;81.29;102739.91;5056992;28;11521;-71
2022/03/07 04:54:03;;;;;;;;;7.50;7.50;;;;;2.15;81.63;102742.13;5045284;28;11596;-70
2022/03/07 04:56:30;;;;;;;;;8.75;8.50;;;;;2.24;81.52;102741.63;5045543;28;11534;-71
2022/03/07 04:58:56;;;;;;;;;5.50;4.50;;;;;2.28;81.15;102742.31;5041054;28;11469;-70
2022/03/07 05:01:23;;;;;;;;;10.00;8.00;;;;;2.21;81.36;102743.59;5040744;28;12135;-69
2022/03/07 05:03:50;;;;;;;;;11.25;9.00;;;;;2.23;81.49;102752.38;5039780;28;11475;-68
2022/03/07 05:06:17;;;;;;;;;7.50;7.50;;;;;2.26;81.50;102747.75;5038125;28;11471;-69
2022/03/07 05:08:43;;;;;;;;;7.25;7.25;;;;;2.19;81.56;102745.50;5049893;28;11531;-70
2022/03/07 05:11:10;;;;;;;;;11.50;6.75;;;;;2.23;81.54;102747.03;5029113;28;11651;-71
2022/03/07 05:13:36;;;;;;;;;7.75;7.75;;;;;2.28;81.51;102748.50;5044501;28;11485;-70
2022/03/07 05:16:03;;;;;;;;;10.75;9.25;;;;;2.28;81.19;102744.97;5041111;28;11537;-71
2022/03/07 05:18:30;;;;;;;;;11.50;9.00;;;;;2.26;80.90;102749.56;5056971;28;12256;-70
2022/03/07 05:20:56;;;;;;;;;7.50;7.50;;;;;2.19;81.32;102757.03;5040755;28;13882;-71
2022/03/07 05:23:30;;;;;;;;;8.25;6.25;;;;;2.14;81.26;102749.28;5042161;28;11481;-70
2022/03/07 05:25:56;;;;;;;;;9.00;8.75;;;;;2.10;81.53;102749.56;5043485;28;11553;-69
2022/03/07 05:28:23;;;;;;;;;8.00;6.25;;;;;2.05;81.65;102754.31;5023245;28;11514;-68
2022/03/07 05:30:49;;;;;;;;;9.50;8.25;;;;;1.99;81.68;102749.31;5042137;28;11552;-71
2022/03/07 05:33:15;;;;;;;;;8.00;8.00;;;;;2.00;81.88;102746.56;5057910;28;11605;-70
2022/03/07 05:35:42;;;;;;;;;7.00;7.00;;;;;1.99;81.75;102752.84;5040510;28;11462;-71
2022/03/07 05:38:13;;;;;;;;;7.50;7.00;;;;;1.97;81.78;102749.38;5043179;28;11471;-70
2022/03/07 05:40:40;;;;;;;;;7.75;6.75;;;;;2.00;81.52;102754.56;5057778;28;13713;-70
2022/03/07 05:43:06;;;;;;;;;7.25;7.00;;;;;2.03;81.91;102764.22;5041006;28;11497;-70
2022/03/07 05:45:33;;;;;;;;;7.25;6.50;;;;;2.01;81.36;102771.47;5056973;28;11646;-70
2022/03/07 05:47:59;;;;;;;;;6.00;6.00;;;;;1.91;80.78;102773.75;5042588;28;11636;-71
2022/03/07 05:50:26;;;;;;;;;12.00;11.00;;;;;1.90;81.15;102772.03;5041598;28;11529;-70
2022/03/07 05:52:52;;;;;;;;;9.00;9.00;;;;;1.94;81.28;102778.06;5042802;28;11624;-69
2022/03/07 05:55:24;;;;;;;;;7.00;7.00;;;;;1.89;81.20;102774.78;5042026;28;11454;-69
2022/03/07 05:57:50;;;;;;;;;5.50;5.50;;;;;1.82;81.09;102775.16;5024653;28;11625;-69
2022/03/07 06:00:17;;;;;;;;;4.50;4.50;;;;;1.81;81.83;102777.91;5042663;28;11468;-69
2022/03/07 06:02:43;;;;;;;;;9.00;9.00;;;;;1.81;81.87;102777.91;5039803;28;12318;-71
2022/03/07 06:05:10;;;;;;;;;7.50;7.50;;;;;1.77;81.29;102787.03;5041731;28;11536;-71
2022/03/07 06:07:37;;;;;;;;;13.25;10.00;;;;;1.69;81.50;102779.41;5023932;28;11522;-70
2022/03/07 06:10:03;;;;;;;;;8.25;7.25;;;;;1.67;81.61;102785.78;5025410;28;11640;-69
2022/03/07 06:12:30;;;;;;;;;8.00;5.25;;;;;1.66;81.57;102782.25;5042069;28;11480;-71
2022/03/07 06:14:57;;;;;;;;;11.25;9.50;;;;;1.64;81.25;102789.50;5056395;28;11510;-70
2022/03/07 06:17:23;;;;;;;;;12.00;10.00;;;;;1.65;81.57;102782.34;5040446;28;11525;-69
2022/03/07 06:19:50;;;;;;;;;11.00;10.50;;;;;1.70;81.78;102782.94;5026192;28;11525;-67
2022/03/07 06:22:16;;;;;;;;;9.25;5.25;;;;;1.70;81.96;102788.28;5041486;28;11498;-71
2022/03/07 06:24:42;;;;;;;;;12.00;10.00;;;;;1.66;81.69;102792.06;5042331;28;11586;-70
2022/03/07 06:27:09;;;;;;;;;8.75;8.75;;;;;1.67;81.48;102793.81;5040335;28;11636;-69
2022/03/07 06:29:36;;;;;;;;;14.25;7.25;;;;;1.69;81.51;102789.25;5056576;28;11512;-70
2022/03/07 06:32:02;;;;;;;;;7.25;4.50;;;;;1.69;81.08;102787.44;5045268;28;12187;-71
2022/03/07 06:34:31;;;;;;;;;10.00;8.00;;;;;1.74;81.23;102784.53;5050082;28;11527;-71
2022/03/07 06:36:58;;;;;;;;;11.00;9.50;;;;;1.77;80.74;102787.03;5040200;28;11492;-71
2022/03/07 06:39:26;;;;;;;;;11.00;7.75;;;;;1.78;80.85;102789.63;5049078;28;11544;-70
2022/03/07 06:41:55;;;;;;;;;7.50;7.50;;;;;1.93;80.76;102795.91;5049595;28;11415;-71
2022/03/07 06:44:25;;;;;;;;;13.25;11.50;;;;;2.85;78.77;102788.81;5058042;28;11434;-70
2022/03/07 06:46:51;;;;;;;;;13.50;10.00;;;;;2.74;76.79;102794.81;5031594;28;11569;-70
2022/03/07 06:49:18;;;;;;;;;7.00;7.00;;;;;2.73;77.20;102794.91;5030993;28;11520;-69
2022/03/07 06:51:44;;;;;;;;;8.00;8.00;;;;;2.96;76.60;102790.84;5055734;28;11444;-70
2022/03/07 06:54:10;;;;;;;;;11.50;9.50;;;;;3.54;75.54;102793.53;5030047;28;11482;-70
2022/03/07 06:56:37;;;;;;;;;17.00;11.00;;;;;4.63;71.86;102795.41;5028930;28;11659;-71
2022/03/07 06:59:04;;;;;;;;;8.50;8.00;;;;;5.21;68.00;102791.47;5039221;28;11454;-71
2022/03/07 07:01:31;;;;;;;;;11.00;9.25;;;;;5.53;65.88;102791.88;5051794;28;11479;-71
2022/03/07 07:03:57;;;;;;;;;15.25;12.25;;;;;5.17;66.16;102795.31;5062269;28;11431;-71
2022/03/07 07:06:24;;;;;;;;;13.25;9.00;;;;;5.07;66.79;102795.09;5061581;28;11477;-71
2022/03/07 07:08:50;;;;;;;;;10.00;9.75;;;;;5.16;66.42;102798.94;5046389;28;11384;-71
2022/03/07 07:11:17;;;;;;;;;13.50;11.00;;;;;5.60;65.50;102792.31;5043789;28;11440;-71
2022/03/07 07:13:43;;;;;;;;;14.25;10.75;;;;;5.45;64.71;102792.44;5036950;28;11510;-72
2022/03/07 07:16:10;;;;;;;;;19.75;15.50;;;;;5.44;65.33;102798.75;5054031;28;11427;-71
2022/03/07 07:18:37;;;;;;;;;13.00;13.00;;;;;5.68;64.84;102800.69;5036210;28;12248;-71
2022/03/07 07:21:04;;;;;;;;;11.25;10.00;;;;;5.81;63.36;102794.34;5053783;28;11526;-70
2022/03/07 07:23:30;;;;;;;;;10.25;9.75;;;;;5.90;62.40;102806.28;5068857;28;11578;-71
2022/03/07 07:25:57;;;;;;;;;11.50;9.75;;;;;5.54;63.22;102798.97;5068988;28;11466;-70
2022/03/07 07:28:23;;;;;;;;;12.25;12.25;;;;;5.24;63.90;102797.47;5053712;28;11427;-70
2022/03/07 07:30:50;;;;;;;;;16.25;13.00;;;;;5.23;64.10;102801.13;5041292;28;11414;-71
2022/03/07 07:33:17;;;;;;;;;14.00;12.75;;;;;5.13;63.89;102801.84;5044782;28;11666;-72
2022/03/07 07:35:43;;;;;;;;;16.25;16.25;;;;;4.90;64.06;102806.97;5072326;28;11437;-70
2022/03/07 07:38:10;;;;;;;;;17.75;14.00;;;;;4.85;64.31;102809.09;5070590;28;11587;-71
2022/03/07 07:40:36;;;;;;;;;9.00;9.00;;;;;4.82;64.08;102808.44;5048069;28;11583;-72
2022/03/07 07:43:03;;;;;;;;;10.50;10.00;;;;;4.85;63.97;102810.94;5047316;28;11377;-72
2022/03/07 07:45:31;;;;;;;;;18.00;15.00;;;;;4.56;64.52;102810.19;5050563;28;11418;-71
2022/03/07 07:47:59;;;;;;;;;20.75;18.00;;;;;4.49;64.50;102811.56;5053313;28;12191;-71
2022/03/07 07:50:27;;;;;;;;;18.00;16.50;;;;;4.71;63.93;102809.19;5053519;28;12258;-72
2022/03/07 07:52:55;;;;;;;;;16.25;13.25;;;;;4.72;62.57;102815.41;5053206;28;11520;-71
2022/03/07 07:55:22;;;;;;;;;19.25;17.25;;;;;4.82;61.94;102820.03;5065072;28;11491;-71
2022/03/07 07:57:48;;;;;;;;;16.00;14.00;;;;;4.92;62.34;102812.22;5054622;28;11603;-72
2022/03/07 08:00:19;;;;;;;;;12.00;11.50;;;;;5.27;61.74;102825.09;5069376;28;11445;-71
2022/03/07 08:02:50;;;;;;;;;18.75;17.25;;;;;5.35;61.27;102825.41;5054374;28;11455;-73
2022/03/07 08:05:19;;;;;;;;;16.25;14.00;;;;;5.63;60.30;102821.66;5062231;28;11512;-71
2022/03/07 08:07:46;;;;;;;;;18.50;15.50;;;;;5.79;59.06;102824.97;5061012;28;11484;-72
2022/03/07 08:10:16;;;;;;;;;22.25;12.75;;;;;5.85;58.75;102825.38;5055836;28;11467;-72
2022/03/07 08:12:44;;;;;;;;;18.50;15.25;;;;;6.11;58.13;102820.00;5053620;28;11462;-72
2022/03/07 08:15:16;;;;;;;;;17.75;14.75;;;;;6.24;58.34;102822.66;5050753;28;11548;-70
2022/03/07 08:17:52;;;;;;;;;17.75;16.50;;;;;6.46;56.53;102818.28;5072283;28;11455;-70
2022/03/07 08:20:23;;;;;;;;;20.25;16.00;;;;;6.51;56.25;102819.78;5054631;28;11463;-71
2022/03/07 08:22:51;;;;;;;;;17.00;13.50;;;;;6.91;54.86;102818.47;5034502;28;11435;-71
2022/03/07 08:25:19;;;;;;;;;20.75;14.00;;;;;6.99;54.20;102826.84;5052616;28;11485;-71
2022/03/07 08:27:45;;;;;;;;;12.75;11.50;;;;;7.03;53.51;102824.78;5052284;28;11563;-72
2022/03/07 08:30:14;;;;;;;;;16.75;14.75;;;;;6.75;54.11;102821.50;5052457;28;11467;-71
2022/03/07 08:32:41;;;;;;;;;16.00;16.00;;;;;7.00;54.08;102825.88;5052205;28;11587;-70
2022/03/07 08:35:10;;;;;;;;;13.50;13.50;;;;;6.83;52.95;102820.91;5068266;28;11414;-71
2022/03/07 08:37:41;;;;;;;;;13.75;13.00;;;;;6.75;52.10;102831.41;5070011;28;11418;-70
2022/03/07 08:40:09;;;;;;;;;17.00;13.00;;;;;7.07;52.43;102829.81;5038205;28;11555;-70
2022/03/07 08:42:36;;;;;;;;;9.00;7.00;;;;;7.30;51.88;102829.88;5051773;28;11450;-71
2022/03/07 08:45:04;;;;;;;;;16.00;15.75;;;;;7.37;50.30;102831.09;5049349;28;11467;-72
2022/03/07 08:47:31;;;;;;;;;15.25;14.00;;;;;7.63;49.55;102829.94;5071999;28;11433;-71
2022/03/07 08:49:57;;;;;;;;;10.00;9.25;;;;;7.81;49.58;102827.63;5041604;28;11464;-70
2022/03/07 08:52:24;;;;;;;;;15.75;12.75;;;;;7.80;49.08;102823.22;5051425;28;11202;-70
2022/03/07 08:54:51;;;;;;;;;19.50;15.25;;;;;7.99;48.16;102820.75;5051869;28;11145;-71
2022/03/07 08:57:17;;;;;;;;;12.00;11.00;;;;;8.32;48.35;102814.44;5051916;28;11444;-71
2022/03/07 08:59:44;;;;;;;;;14.75;13.50;;;;;7.84;47.28;102819.28;5064261;28;11087;-70
2022/03/07 09:02:10;;;;;;;;;12.75;10.25;;;;;7.89;47.03;102813.50;5071595;28;11131;-71
2022/03/07 09:04:42;;;;;;;;;19.50;18.50;;;;;8.37;47.93;102806.00;5058246;28;11921;-70
2022/03/07 09:07:09;;;;;;;;;11.00;11.00;;;;;8.67;46.97;102816.09;5051447;28;11514;-70
2022/03/07 09:09:36;;;;;;;;;13.00;12.25;;;;;8.66;46.18;102814.38;5051559;28;11039;-71
2022/03/07 09:12:04;;;;;;;;;11.75;10.75;;;;;8.75;46.29;102810.94;5033446;28;11744;-70
2022/03/07 09:14:30;;;;;;;;;12.50;12.50;;;;;8.44;45.45;102809.09;5062470;28;11817;-70
2022/03/07 09:16:57;;;;;;;;;16.00;9.25;;;;;8.77;45.88;102813.50;5071670;28;11004;-70
2022/03/07 09:19:24;;;;;;;;;12.50;12.50;;;;;8.98;44.96;102808.13;5055901;28;10905;-71
2022/03/07 09:21:50;;;;;;;;;13.75;13.75;;;;;8.75;44.56;102804.69;5033355;28;10978;-70
2022/03/07 09:24:17;;;;;;;;;14.00;14.00;;;;;8.44;43.97;102806.38;5045139;28;11001;-70
2022/03/07 09:26:43;;;;;;;;;14.75;14.75;;;;;8.68;44.10;102807.03;5070573;28;11669;-71
2022/03/07 09:29:10;;;;;;;;;15.75;14.25;;;;;8.76;44.42;102799.16;5044488;28;10942;-71
2022/03/07 09:31:37;;;;;;;;;12.00;9.75;;;;;8.81;44.01;102799.59;5050623;28;11599;-71
2022/03/07 09:34:04;;;;;;;;;17.75;15.50;;;;;8.89;42.34;102805.22;5057941;28;11010;-71
2022/03/07 09:36:31;;;;;;;;;15.75;14.00;;;;;8.77;43.15;102803.56;5053119;28;11076;-71
2022/03/07 09:38:57;;;;;;;;;10.00;10.00;;;;;8.90;42.59;102801.53;5064363;28;11012;-70
2022/03/07 09:41:24;;;;;;;;;20.50;18.25;;;;;8.68;42.04;102789.97;5049486;28;11500;-71
2022/03/07 09:43:51;;;;;;;;;18.00;14.00;;;;;8.91;42.16;102796.97;5052362;28;11194;-70
2022/03/07 09:46:18;;;;;;;;;17.75;14.00;;;;;9.01;42.39;102794.38;5043318;28;11020;-71
2022/03/07 09:48:44;;;;;;;;;17.00;16.50;;;;;9.17;42.51;102794.75;5059224;28;10851;-70
2022/03/07 09:51:11;;;;;;;;;20.50;14.75;;;;;9.36;41.60;102792.19;5067882;28;11792;-71
2022/03/07 09:53:37;;;;;;;;;16.50;16.50;;;;;8.83;43.59;102783.28;5052417;28;10906;-70
2022/03/07 09:56:04;;;;;;;;;18.25;14.50;;;;;9.24;42.64;102782.44;5052390;28;11637;-70
2022/03/07 09:58:31;;;;;;;;;16.75;14.00;;;;;9.28;42.42;102775.78;5067017;28;11694;-71
2022/03/07 10:01:13;;;;;;;;;18.50;17.25;;;;;8.84;42.79;102766.94;5049231;28;10779;-70
2022/03/07 10:03:47;;;;;;;;;21.25;21.25;;;;;8.43;43.36;102766.88;5048412;28;11020;-70
2022/03/07 10:06:18;;;;;;;;;13.75;12.25;;;;;8.42;43.87;102775.94;5050260;28;11108;-70
2022/03/07 10:08:52;;;;;;;;;17.75;17.25;;;;;8.52;44.79;102768.81;5054757;28;10900;-70
2022/03/07 10:11:19;;;;;;;;;10.50;8.50;;;;;8.87;42.67;102763.09;5052179;28;11268;-70
2022/03/07 10:13:55;;;;;;;;;16.50;15.00;;;;;8.26;43.08;102755.59;5065085;28;10658;-71
2022/03/07 10:16:42;;;;;;;;;13.75;13.75;;;;;8.38;42.89;102756.44;5052265;28;10935;-71
2022/03/07 10:19:14;;;;;;;;;17.50;17.25;;;;;8.57;42.92;102759.31;5050054;28;10875;-70
2022/03/07 10:21:50;;;;;;;;;21.50;21.25;;;;;8.12;42.89;102755.00;5050408;28;11360;-70
2022/03/07 10:24:17;;;;;;;;;15.00;14.75;;;;;8.78;44.66;102751.25;5041242;28;11822;-69
2022/03/07 10:26:44;;;;;;;;;16.00;11.25;;;;;8.17;42.95;102742.00;5070135;28;11118;-70
2022/03/07 10:29:11;;;;;;;;;18.50;14.50;;;;;8.25;42.99;102740.41;5061555;28;10854;-72
2022/03/07 10:31:59;;;;;;;;;12.75;12.25;;;;;8.11;43.22;102734.41;5049478;28;10996;-71
2022/03/07 10:34:26;;;;;;;;;15.00;11.25;;;;;8.34;43.19;102730.69;5050101;28;10943;-70
2022/03/07 10:36:53;;;;;;;;;23.25;17.00;;;;;8.47;43.11;102744.03;5050059;28;10855;-70
2022/03/07 10:39:25;;;;;;;;;13.75;11.00;;;;;8.66;42.67;102743.31;5040285;28;10931;-70
2022/03/07 10:41:53;;;;;;;;;17.00;17.00;;;;;8.65;42.22;102734.38;5069763;28;10871;-70
2022/03/07 10:44:28;;;;;;;;;13.50;13.25;;;;;8.53;42.75;102728.19;5060337;28;11243;-70
2022/03/07 10:47:11;;;;;;;;;14.50;12.25;;;;;9.03;42.16;102728.41;5032787;28;11162;-70
2022/03/07 10:50:07;;;;;;;;;17.00;16.50;;;;;8.71;41.76;102731.16;5061567;28;11037;-71
2022/03/07 10:52:42;;;;;;;;;17.25;16.25;;;;;8.50;42.63;102731.13;5019638;28;11212;-70
2022/03/07 10:55:12;;;;;;;;;14.00;14.00;;;;;8.83;42.41;102723.84;5065926;28;11006;-70
2022/03/07 10:57:40;;;;;;;;;15.50;14.00;;;;;8.60;42.26;102728.50;5050455;28;10873;-71
2022/03/07 11:00:10;;;;;;;;;13.00;9.25;;;;;8.08;42.44;102721.19;5064388;28;10835;-69
2022/03/07 11:02:39;;;;;;;;;12.75;12.25;;;;;8.26;44.49;102717.81;5051690;28;10722;-71
2022/03/07 11:05:07;;;;;;;;;19.25;17.50;;;;;8.26;44.25;102714.28;5036095;28;11018;-70
2022/03/07 11:07:38;;;;;;;;;9.00;9.00;;;;;8.41;44.31;102714.84;5049553;28;11071;-70
2022/03/07 11:10:07;;;;;;;;;13.25;12.50;;;;;8.43;44.76;102712.91;5053996;28;10801;-70
2022/03/07 11:12:34;;;;;;;;;20.25;13.00;;;;;8.14;45.16;102701.78;5048441;28;10916;-71
2022/03/07 11:15:08;;;;;;;;;22.25;17.50;;;;;8.26;44.46;102703.47;5057535;28;10955;-70
2022/03/07 11:17:43;;;;;;;;;16.75;16.75;;;;;7.66;45.46;102710.22;5049322;28;11096;-72
2022/03/07 11:20:17;;;;;;;;;18.25;18.00;;;;;7.78;46.37;102697.59;5065216;28;11018;-70
2022/03/07 11:22:44;;;;;;;;;13.25;11.50;;;;;7.94;45.75;102692.66;5052833;28;11339;-69
2022/03/07 11:25:15;;;;;;;;;16.75;16.00;;;;;8.19;45.91;102691.50;5035293;28;10929;-70
2022/03/07 11:27:43;;;;;;;;;21.75;21.75;;;;;8.16;45.77;102692.56;5049492;28;11260;-71
2022/03/07 11:30:20;;;;;;;;;11.75;11.75;;;;;8.13;45.44;102691.97;5065823;28;11687;-70